Main page
METAR-TAF:

METAR-TAF

Airports :

Beatrice Municipal Airport

Beatrice, Nebraska, United States

latitude: 40-18N, longitude: 096-45W, elevation: 1322 ft

Current weather observation

The report was made 34 minutes ago, at 22:55 UTC
Wind 14 mph from the South/Southwest with gusts up to 21 mph
Temperature 100°F
Humidity 38%
Pressure 29.71 in. Hg
Visibility: 10 miles
Clear sky

METAR: KBIE 242255Z AUTO 20012G18KT 10SM CLR 38/21 A2971 RMK AO2 T03780208

Time: 18:29 (23:29 UTC)


TAF: missing

Weather observations and forecasts of more than 4000 airports (METAR and TAF reports).

The available stations are represented by yellow and red dots on the map.

Hover mouse over dot to see the name of the station.

Then click to see weather observations and forecasts.

To change the map : click on the green buttons with a black cross to zoom in, on the green button with a dash to zoom out, or on the green arrows for adjacent maps.


METAR-TAF: